Chessington, United Kingdom
Current Conditions -  °F | °C
As of 12:20 AM on Tuesday 25 Nov 2014 (Local Time) from EGLL Reporting Station
Clear Clear  
Wind Chill: 34°   Ceiling: Unl
Heat Index: 34°   Visibility: 4mi
Dew Point: 34°   Wind: 3mph
Humidity: 100%   Direction: 350°N
Pressure: 30.33"   Gusts: NA
Location:  51.37°N, 0.3°W
Report Text: EGLL 250020Z 35003KT 6000 NSC 01/01 Q1027
Loading
Personal Weather Stations






























Interactive Weather Map New forecast layout! Learn more

10-Day Weather Forecast

Advertisements
Track Severe Weather on mobile